createdAt,value
2018-04-16T00:01:02.026Z,99915.23
2018-04-16T00:03:29.682Z,99923.27
2018-04-16T00:05:57.373Z,99925.15
2018-04-16T00:08:24.984Z,99918.67
2018-04-16T00:10:52.681Z,99923.89
2018-04-16T00:13:20.396Z,99925.71
2018-04-16T00:15:48.088Z,99924.14
2018-04-16T00:18:15.712Z,99915.91
2018-04-16T00:20:43.365Z,99913.55
2018-04-16T00:23:11.026Z,99906.79
2018-04-16T00:25:38.723Z,99906.29
2018-04-16T00:28:06.400Z,99903.27
2018-04-16T00:30:34.058Z,99905.92
2018-04-16T00:33:07.296Z,99904.56
2018-04-16T00:35:40.397Z,99912.83
2018-04-16T00:38:13.707Z,99913.20
2018-04-16T00:40:46.902Z,99919.41
2018-04-16T00:43:20.019Z,99916.25
2018-04-16T00:45:53.114Z,99918.42
2018-04-16T00:48:26.087Z,99912.24
2018-04-16T00:50:59.244Z,99909.11
2018-04-16T00:53:44.297Z,99909.75
2018-04-16T00:56:17.472Z,99908.05
2018-04-16T00:58:50.595Z,99917.39
2018-04-16T01:01:23.857Z,99914.06
2018-04-16T01:03:57.060Z,99921.68
2018-04-16T01:06:30.057Z,99925.19
2018-04-16T01:09:03.211Z,99918.47
2018-04-16T01:11:36.408Z,99926.23
2018-04-16T01:14:09.391Z,99926.19
2018-04-16T01:16:42.770Z,99928.94
2018-04-16T01:19:15.874Z,99927.78
2018-04-16T01:21:49.149Z,99924.19
2018-04-16T01:24:22.424Z,99930.49
2018-04-16T01:26:55.573Z,99928.36
2018-04-16T01:29:28.723Z,99931.54
2018-04-16T01:32:01.899Z,99922.72
2018-04-16T01:34:35.054Z,99920.12
2018-04-16T01:37:08.197Z,99924.75
2018-04-16T01:39:41.499Z,99937.48
2018-04-16T01:42:14.849Z,99937.09
2018-04-16T01:44:48.022Z,99943.62
2018-04-16T01:47:21.078Z,99945.59
2018-04-16T01:52:58.301Z,99943.33
2018-04-16T01:55:31.507Z,99945.25
2018-04-16T01:58:04.858Z,99955.13
2018-04-16T02:00:38.251Z,99947.43
2018-04-16T02:03:11.572Z,99955.62
2018-04-16T02:05:44.741Z,99951.73
2018-04-16T02:08:17.806Z,99953.23
2018-04-16T02:10:50.962Z,99948.34
2018-04-16T02:13:24.249Z,99956.91
2018-04-16T02:15:57.343Z,99952.47
2018-04-16T02:18:30.716Z,99957.22
2018-04-16T02:21:03.905Z,99956.66
2018-04-16T02:23:37.209Z,99950.56
2018-04-16T02:26:10.307Z,99960.69
2018-04-16T02:28:43.523Z,99951.91
2018-04-16T02:31:16.656Z,99954.27
2018-04-16T02:33:49.851Z,99948.63
2018-04-16T02:36:23.019Z,99951.95
2018-04-16T02:38:56.274Z,99944.34
2018-04-16T02:41:29.431Z,99948.20
2018-04-16T02:44:02.777Z,99949.55
2018-04-16T02:46:36.062Z,99949.92
2018-04-16T02:49:09.260Z,99947.23
2018-04-16T02:51:42.298Z,99942.98
2018-04-16T02:54:15.615Z,99940.39
2018-04-16T02:56:48.908Z,99946.38
2018-04-16T02:59:22.267Z,99944.56
2018-04-16T03:01:55.643Z,99939.84
2018-04-16T03:04:28.762Z,99937.38
2018-04-16T03:10:10.515Z,99939.84
2018-04-16T03:15:51.538Z,99946.11
2018-04-16T03:18:24.550Z,99955.34
2018-04-16T03:20:57.856Z,99954.38
2018-04-16T03:23:30.966Z,99954.45
2018-04-16T03:26:04.381Z,99950.62
2018-04-16T03:28:37.651Z,99950.09
2018-04-16T03:31:10.878Z,99953.47
2018-04-16T03:33:43.999Z,99954.50
2018-04-16T03:36:17.258Z,99952.79
2018-04-16T03:38:50.397Z,99960.06
2018-04-16T03:41:23.692Z,99959.99
2018-04-16T03:43:56.972Z,99958.78
2018-04-16T03:46:30.335Z,99960.57
2018-04-16T03:49:03.484Z,99974.06
2018-04-16T03:51:35.027Z,99969.56
2018-04-16T03:54:02.724Z,99979.53
2018-04-16T03:56:30.380Z,99973.64
2018-04-16T03:58:57.983Z,99985.02
2018-04-16T04:01:25.647Z,99990.36
2018-04-16T04:03:53.255Z,99992.27
2018-04-16T04:06:20.935Z,100002.39
2018-04-16T04:08:48.551Z,100004.61
2018-04-16T04:11:16.215Z,100005.57
2018-04-16T04:13:43.842Z,100010.69
2018-04-16T04:16:11.567Z,100005.90
2018-04-16T04:18:39.212Z,100010.59
2018-04-16T04:21:06.867Z,100020.72
2018-04-16T04:23:46.237Z,100023.53
2018-04-16T04:26:25.563Z,100018.02
2018-04-16T04:29:04.917Z,100026.25
2018-04-16T04:31:32.598Z,100023.23
2018-04-16T04:34:00.211Z,100025.19
2018-04-16T04:36:27.944Z,100035.72
2018-04-16T04:38:55.564Z,100037.90
2018-04-16T04:41:23.209Z,100038.55
2018-04-16T04:43:50.910Z,100049.06
2018-04-16T04:46:18.541Z,100043.42
2018-04-16T04:48:46.194Z,100049.66
2018-04-16T04:51:13.828Z,100050.98
2018-04-16T04:53:41.504Z,100050.56
2018-04-16T04:56:09.141Z,100049.20
2018-04-16T04:58:36.799Z,100058.69
2018-04-16T05:01:04.433Z,100056.56
2018-04-16T05:03:32.154Z,100061.58
2018-04-16T05:05:59.796Z,100066.62
2018-04-16T05:08:27.451Z,100066.25
2018-04-16T05:10:55.078Z,100062.16
2018-04-16T05:13:22.728Z,100063.58
2018-04-16T05:15:50.343Z,100072.14
2018-04-16T05:18:18.002Z,100072.15
2018-04-16T05:20:45.621Z,100072.80
2018-04-16T05:25:46.982Z,100080.19
2018-04-16T05:28:14.692Z,100076.12
2018-04-16T05:30:42.360Z,100076.47
2018-04-16T05:33:10.095Z,100082.98
2018-04-16T05:35:37.738Z,100085.78
2018-04-16T05:38:05.411Z,100085.30
2018-04-16T05:40:33.077Z,100095.83
2018-04-16T05:43:00.739Z,100091.58
2018-04-16T05:45:28.428Z,100094.09
2018-04-16T05:47:56.117Z,100090.77
2018-04-16T05:50:23.731Z,100092.63
2018-04-16T05:52:51.386Z,100096.61
2018-04-16T05:55:19.012Z,100094.79
2018-04-16T05:57:46.707Z,100096.92
2018-04-16T06:00:14.428Z,100094.33
2018-04-16T06:02:42.064Z,100096.11
2018-04-16T06:05:09.741Z,100104.09
2018-04-16T06:07:37.378Z,100101.59
2018-04-16T06:10:05.055Z,100104.29
2018-04-16T06:12:32.699Z,100111.52
2018-04-16T06:15:00.430Z,100097.89
2018-04-16T06:17:28.070Z,100108.11
2018-04-16T06:19:55.778Z,100108.31
2018-04-16T06:22:23.411Z,100106.34
2018-04-16T06:24:51.235Z,100110.23
2018-04-16T06:27:18.880Z,100113.42
2018-04-16T06:29:46.583Z,100111.98
2018-04-16T06:32:14.298Z,100123.23
2018-04-16T06:34:42.062Z,100130.09
2018-04-16T06:37:09.696Z,100131.48
2018-04-16T06:39:37.360Z,100130.36
2018-04-16T06:42:05.016Z,100131.81
2018-04-16T06:44:32.670Z,100129.28
2018-04-16T06:47:00.287Z,100138.56
2018-04-16T06:49:27.951Z,100133.69
2018-04-16T06:51:55.552Z,100136.36
2018-04-16T06:54:23.247Z,100140.27
2018-04-16T06:56:50.910Z,100138.80
2018-04-16T06:59:18.582Z,100140.12
2018-04-16T07:01:46.211Z,100140.20
2018-04-16T07:04:13.854Z,100150.02
2018-04-16T07:06:41.527Z,100149.97
2018-04-16T07:09:09.196Z,100153.19
2018-04-16T07:11:36.867Z,100157.00
2018-04-16T07:14:04.507Z,100159.72
2018-04-16T07:16:32.260Z,100169.50
2018-04-16T07:18:59.947Z,100164.28
2018-04-16T07:21:27.661Z,100172.89
2018-04-16T07:23:55.308Z,100167.53
2018-04-16T07:26:22.968Z,100173.89
2018-04-16T07:28:50.581Z,100175.08
2018-04-16T07:31:18.258Z,100182.05
2018-04-16T07:33:45.898Z,100184.22
2018-04-16T07:36:13.562Z,100188.84
2018-04-16T07:38:41.191Z,100187.27
2018-04-16T07:41:08.851Z,100196.15
2018-04-16T07:43:36.498Z,100193.99
2018-04-16T07:46:04.187Z,100193.17
2018-04-16T07:48:31.790Z,100198.55
2018-04-16T07:50:59.444Z,100194.78
2018-04-16T07:53:27.064Z,100193.76
2018-04-16T07:55:54.710Z,100191.98
2018-04-16T07:58:22.378Z,100194.53
2018-04-16T08:00:49.991Z,100203.98
2018-04-16T08:03:17.669Z,100206.45
2018-04-16T08:05:45.295Z,100196.37
2018-04-16T08:08:12.985Z,100199.16
2018-04-16T08:10:40.612Z,100211.42
2018-04-16T08:13:08.339Z,100207.11
2018-04-16T08:15:35.991Z,100209.81
2018-04-16T08:18:03.639Z,100207.77
2018-04-16T08:20:31.251Z,100212.95
2018-04-16T08:22:58.942Z,100221.64
2018-04-16T08:25:26.599Z,100221.08
2018-04-16T08:27:54.252Z,100219.95
2018-04-16T08:30:21.902Z,100217.53
2018-04-16T08:32:49.579Z,100208.12
2018-04-16T08:35:17.190Z,100219.76
2018-04-16T08:37:44.834Z,100214.51
2018-04-16T08:40:12.437Z,100217.98
2018-04-16T08:42:40.090Z,100218.72
2018-04-16T08:45:07.731Z,100216.13
2018-04-16T08:47:35.398Z,100213.61
2018-04-16T08:50:03.021Z,100214.02
2018-04-16T08:52:30.676Z,100215.06
2018-04-16T08:54:58.371Z,100202.69
2018-04-16T08:57:26.027Z,100201.73
2018-04-16T08:59:53.635Z,100202.13
2018-04-16T09:02:21.336Z,100205.59
2018-04-16T09:04:49.039Z,100200.08
2018-04-16T09:07:16.705Z,100205.24
2018-04-16T09:09:44.374Z,100204.78
2018-04-16T09:12:12.042Z,100208.31
2018-04-16T09:14:40.913Z,100204.38
2018-04-16T09:17:08.583Z,100212.76
2018-04-16T09:19:36.191Z,100218.03
2018-04-16T09:22:03.840Z,100214.29
2018-04-16T09:24:31.459Z,100225.02
2018-04-16T09:26:59.084Z,100222.48
2018-04-16T09:29:26.761Z,100223.09
2018-04-16T09:31:54.403Z,100222.52
2018-04-16T09:34:22.054Z,100216.67
2018-04-16T09:36:49.683Z,100222.96
2018-04-16T09:39:24.827Z,100234.50
2018-04-16T09:41:52.533Z,100228.07
2018-04-16T09:44:20.254Z,100230.44
2018-04-16T09:46:47.881Z,100225.30
2018-04-16T09:49:15.572Z,100216.83
2018-04-16T09:51:43.223Z,100223.94
2018-04-16T09:54:10.874Z,100219.91
2018-04-16T09:56:38.515Z,100221.89
2018-04-16T09:59:06.167Z,100218.48
2018-04-16T10:01:38.588Z,100209.77
2018-04-16T10:04:06.271Z,100210.05
2018-04-16T10:06:33.960Z,100215.35
2018-04-16T10:09:01.660Z,100213.47
2018-04-16T10:11:29.318Z,100227.03
2018-04-16T10:13:56.971Z,100219.44
2018-04-16T10:16:24.583Z,100216.81
2018-04-16T10:18:52.262Z,100217.66
2018-04-16T10:21:19.874Z,100221.16
2018-04-16T10:23:47.519Z,100219.03
2018-04-16T10:26:15.164Z,100217.74
2018-04-16T10:28:42.813Z,100217.49
2018-04-16T10:31:10.475Z,100222.09
2018-04-16T10:33:38.134Z,100228.62
2018-04-16T10:36:05.786Z,100227.09
2018-04-16T10:38:33.446Z,100223.56
2018-04-16T10:41:01.121Z,100223.13
2018-04-16T10:43:28.815Z,100228.09
2018-04-16T10:45:56.464Z,100229.28
2018-04-16T10:48:24.122Z,100233.31
2018-04-16T10:50:51.761Z,100228.07
2018-04-16T10:53:19.402Z,100236.06
2018-04-16T10:55:47.026Z,100231.28
2018-04-16T10:58:14.698Z,100235.72
2018-04-16T11:00:42.343Z,100226.90
2018-04-16T11:03:10.020Z,100237.73
2018-04-16T11:05:37.728Z,100229.62
2018-04-16T11:08:05.384Z,100231.59
2018-04-16T11:10:32.992Z,100233.20
2018-04-16T11:13:00.648Z,100238.15
2018-04-16T11:15:28.272Z,100235.16
2018-04-16T11:17:55.930Z,100239.88
2018-04-16T11:20:23.551Z,100238.05
2018-04-16T11:22:51.265Z,100232.22
2018-04-16T11:25:18.882Z,100226.59
2018-04-16T11:27:46.593Z,100234.66
2018-04-16T11:30:14.261Z,100236.41
2018-04-16T11:32:41.962Z,100237.27
2018-04-16T11:35:15.440Z,100239.54
2018-04-16T11:37:43.131Z,100235.59
2018-04-16T11:40:10.816Z,100235.03
2018-04-16T11:42:38.533Z,100247.23
2018-04-16T11:45:06.196Z,100243.32
2018-04-16T11:47:33.822Z,100239.64
2018-04-16T11:50:01.510Z,100243.55
2018-04-16T11:52:29.173Z,100245.64
2018-04-16T11:54:56.853Z,100245.42
2018-04-16T11:57:24.499Z,100253.05
2018-04-16T11:59:52.155Z,100252.09
2018-04-16T12:02:19.818Z,100251.19
2018-04-16T12:04:47.486Z,100257.63
2018-04-16T12:07:15.118Z,100255.48
2018-04-16T12:09:42.790Z,100257.59
2018-04-16T12:12:10.414Z,100264.66
2018-04-16T12:14:38.096Z,100268.08
2018-04-16T12:17:05.723Z,100269.53
2018-04-16T12:19:33.419Z,100273.68
2018-04-16T12:22:01.048Z,100266.45
2018-04-16T12:24:28.722Z,100266.09
2018-04-16T12:26:56.379Z,100272.38
2018-04-16T12:29:24.035Z,100272.99
2018-04-16T12:31:52.383Z,100271.65
2018-04-16T12:34:20.039Z,100273.67
2018-04-16T12:36:47.650Z,100273.53
2018-04-16T12:39:15.309Z,100271.66
2018-04-16T12:41:42.918Z,100266.11
2018-04-16T12:44:10.578Z,100265.81
2018-04-16T12:46:38.207Z,100267.99
2018-04-16T12:49:05.865Z,100270.20
2018-04-16T12:51:33.481Z,100267.38
2018-04-16T12:54:01.143Z,100277.42
2018-04-16T12:56:28.779Z,100276.73
2018-04-16T12:58:56.544Z,100270.28
2018-04-16T13:01:24.196Z,100274.45
2018-04-16T13:03:51.887Z,100275.79
2018-04-16T13:06:19.527Z,100277.73
2018-04-16T13:08:47.233Z,100279.66
2018-04-16T13:11:14.862Z,100271.03
2018-04-16T13:13:42.548Z,100281.16
2018-04-16T13:16:10.181Z,100268.63
2018-04-16T13:18:37.834Z,100280.08
2018-04-16T13:21:05.461Z,100270.95
2018-04-16T13:23:33.154Z,100278.17
2018-04-16T13:26:00.766Z,100279.66
2018-04-16T13:28:28.451Z,100284.84
2018-04-16T13:30:56.067Z,100280.55
2018-04-16T13:33:23.727Z,100279.55
2018-04-16T13:35:51.362Z,100285.36
2018-04-16T13:38:19.047Z,100283.73
2018-04-16T13:40:46.678Z,100284.41
2018-04-16T13:43:14.345Z,100276.50
2018-04-16T13:45:42.007Z,100278.77
2018-04-16T13:48:09.658Z,100271.14
2018-04-16T13:50:37.338Z,100268.81
2018-04-16T13:53:04.974Z,100282.63
2018-04-16T13:55:32.659Z,100284.48
2018-04-16T13:58:00.269Z,100287.39
2018-04-16T14:00:27.927Z,100274.80
2018-04-16T14:02:55.563Z,100283.53
2018-04-16T14:05:23.221Z,100278.56
2018-04-16T14:07:50.861Z,100269.61
2018-04-16T14:10:18.523Z,100270.87
2018-04-16T14:12:46.137Z,100269.33
2018-04-16T14:15:13.795Z,100276.04
2018-04-16T14:17:41.428Z,100273.86
2018-04-16T14:20:09.133Z,100274.31
2018-04-16T14:22:36.759Z,100274.87
2018-04-16T14:25:04.419Z,100278.86
2018-04-16T14:27:32.106Z,100276.25
2018-04-16T14:29:59.775Z,100282.45
2018-04-16T14:32:27.385Z,100278.36
2018-04-16T14:34:55.050Z,100283.23
2018-04-16T14:37:22.691Z,100280.18
2018-04-16T14:39:50.385Z,100274.14
2018-04-16T14:42:18.011Z,100281.22
2018-04-16T14:44:45.680Z,100278.39
2018-04-16T14:47:13.352Z,100282.55
2018-04-16T14:49:41.014Z,100283.20
2018-04-16T14:52:08.630Z,100279.13
2018-04-16T14:54:36.320Z,100285.05
2018-04-16T14:57:03.957Z,100289.59
2018-04-16T14:59:31.611Z,100289.98
2018-04-16T15:01:59.250Z,100285.44
2018-04-16T15:04:26.964Z,100288.09
2018-04-16T15:06:54.586Z,100285.65
2018-04-16T15:09:22.278Z,100283.30
2018-04-16T15:11:49.886Z,100286.81
2018-04-16T15:14:17.572Z,100287.30
2018-04-16T15:16:45.206Z,100285.74
2018-04-16T15:19:12.870Z,100282.64
2018-04-16T15:21:40.530Z,100291.19
2018-04-16T15:24:08.183Z,100284.41
2018-04-16T15:26:35.852Z,100297.97
2018-04-16T15:29:03.522Z,100293.70
2018-04-16T15:31:31.200Z,100287.62
2018-04-16T15:33:58.871Z,100283.33
2018-04-16T15:36:26.493Z,100283.47
2018-04-16T15:38:54.170Z,100285.40
2018-04-16T15:41:21.788Z,100284.64
2018-04-16T15:43:49.459Z,100288.45
2018-04-16T15:46:17.139Z,100289.77
2018-04-16T15:48:44.798Z,100292.13
2018-04-16T15:51:12.427Z,100291.07
2018-04-16T15:53:40.080Z,100289.41
2018-04-16T15:56:07.711Z,100290.92
2018-04-16T15:58:35.315Z,100293.97
2018-04-16T16:01:03.019Z,100295.04
2018-04-16T16:03:30.647Z,100293.05
2018-04-16T16:05:58.334Z,100282.02
2018-04-16T16:08:25.940Z,100288.05
2018-04-16T16:10:53.597Z,100285.97
2018-04-16T16:13:21.219Z,100290.66
2018-04-16T16:15:48.868Z,100293.59
2018-04-16T16:18:16.483Z,100288.61
2018-04-16T16:20:44.151Z,100293.58
2018-04-16T16:23:11.766Z,100294.30
2018-04-16T16:25:39.466Z,100306.75
2018-04-16T16:28:07.079Z,100307.36
2018-04-16T16:30:34.734Z,100306.58
2018-04-16T16:33:02.378Z,100309.91
2018-04-16T16:35:30.030Z,100303.02
2018-04-16T16:37:57.635Z,100306.12
2018-04-16T16:40:25.291Z,100309.62
2018-04-16T16:42:52.927Z,100311.36
2018-04-16T16:45:20.586Z,100312.89
2018-04-16T16:47:48.248Z,100329.99
2018-04-16T16:50:15.959Z,100320.99
2018-04-16T16:52:43.566Z,100320.88
2018-04-16T16:55:11.212Z,100327.72
2018-04-16T16:57:38.822Z,100326.11
2018-04-16T17:00:06.468Z,100346.52
2018-04-16T17:02:34.141Z,100343.66
2018-04-16T17:05:01.787Z,100352.06
2018-04-16T17:07:29.416Z,100350.75
2018-04-16T17:09:57.080Z,100358.55
2018-04-16T17:12:24.687Z,100361.76
2018-04-16T17:14:52.351Z,100363.93
2018-04-16T17:17:19.960Z,100371.21
2018-04-16T17:19:47.619Z,100371.48
2018-04-16T17:22:15.259Z,100375.42
2018-04-16T17:24:42.955Z,100372.44
2018-04-16T17:27:10.629Z,100381.67
2018-04-16T17:29:38.288Z,100382.70
2018-04-16T17:32:05.913Z,100385.26
2018-04-16T17:34:33.558Z,100390.92
2018-04-16T17:37:01.191Z,100393.13
2018-04-16T17:39:28.856Z,100397.16
2018-04-16T17:41:56.534Z,100400.88
2018-04-16T17:44:24.188Z,100398.12
2018-04-16T17:46:51.841Z,100402.64
2018-04-16T17:49:19.529Z,100407.59
2018-04-16T17:51:47.147Z,100412.88
2018-04-16T17:54:14.794Z,100414.70
2018-04-16T17:56:42.458Z,100415.39
2018-04-16T17:59:10.123Z,100421.73
2018-04-16T18:01:37.779Z,100420.53
2018-04-16T18:04:05.438Z,100427.86
2018-04-16T18:06:33.083Z,100434.84
2018-04-16T18:09:00.692Z,100442.08
2018-04-16T18:11:28.346Z,100451.33
2018-04-16T18:13:55.957Z,100461.42
2018-04-16T18:16:23.681Z,100458.55
2018-04-16T18:18:51.360Z,100459.19
2018-04-16T18:21:19.019Z,100470.81
2018-04-16T18:23:46.643Z,100469.50
2018-04-16T18:26:14.299Z,100474.70
2018-04-16T18:28:41.915Z,100479.72
2018-04-16T18:31:09.571Z,100481.80
2018-04-16T18:33:37.203Z,100486.16
2018-04-16T18:36:04.866Z,100498.92
2018-04-16T18:38:32.519Z,100495.84
2018-04-16T18:41:00.170Z,100498.48
2018-04-16T18:43:27.779Z,100506.62
2018-04-16T18:45:55.447Z,100502.25
2018-04-16T18:48:23.073Z,100513.78
2018-04-16T18:50:50.751Z,100514.73
2018-04-16T18:53:18.373Z,100524.47
2018-04-16T18:55:46.019Z,100526.75
2018-04-16T18:58:13.666Z,100527.84
2018-04-16T19:00:41.338Z,100537.55
2018-04-16T19:03:08.958Z,100530.22
2018-04-16T19:05:36.619Z,100538.14
2018-04-16T19:08:04.270Z,100543.78
2018-04-16T19:10:31.942Z,100553.30
2018-04-16T19:12:59.569Z,100555.66
2018-04-16T19:15:27.223Z,100566.18
2018-04-16T19:17:57.710Z,100568.63
2018-04-16T19:23:30.225Z,100570.64
2018-04-16T19:25:57.883Z,100581.48
2018-04-16T19:28:25.487Z,100579.63
2018-04-16T19:30:53.228Z,100582.50
2018-04-16T19:33:26.321Z,100591.81
2018-04-16T19:35:53.983Z,100592.91
2018-04-16T19:38:21.591Z,100599.63
2018-04-16T19:40:49.252Z,100610.15
2018-04-16T19:43:16.871Z,100616.06
2018-04-16T19:45:44.524Z,100619.06
2018-04-16T19:48:12.123Z,100633.27
2018-04-16T19:50:39.762Z,100632.67
2018-04-16T19:53:07.418Z,100635.03
2018-04-16T19:55:40.709Z,100642.88
2018-04-16T19:58:13.799Z,100641.88
2018-04-16T20:00:41.480Z,100648.84
2018-04-16T20:03:14.790Z,100655.89
2018-04-16T20:05:42.479Z,100661.16
2018-04-16T20:08:10.085Z,100655.34
2018-04-16T20:10:37.769Z,100661.98
2018-04-16T20:13:05.403Z,100663.15
2018-04-16T20:15:33.060Z,100665.95
2018-04-16T20:18:00.670Z,100673.48
2018-04-16T20:20:28.334Z,100677.33
2018-04-16T20:22:55.961Z,100679.88
2018-04-16T20:25:23.632Z,100682.77
2018-04-16T20:27:51.254Z,100680.09
2018-04-16T20:30:18.955Z,100686.03
2018-04-16T20:32:46.597Z,100687.04
2018-04-16T20:35:14.266Z,100696.00
2018-04-16T20:37:41.924Z,100691.41
2018-04-16T20:40:09.571Z,100699.08
2018-04-16T20:42:37.191Z,100696.78
2018-04-16T20:45:04.840Z,100695.20
2018-04-16T20:47:32.492Z,100696.54
2018-04-16T20:50:00.108Z,100699.28
2018-04-16T20:52:27.799Z,100697.87
2018-04-16T20:54:55.466Z,100703.15
2018-04-16T20:57:23.117Z,100706.55
2018-04-16T20:59:50.730Z,100709.73
2018-04-16T21:02:18.393Z,100713.18
2018-04-16T21:04:46.003Z,100716.64
2018-04-16T21:07:13.662Z,100713.73
2018-04-16T21:09:41.279Z,100721.65
2018-04-16T21:12:08.954Z,100720.50
2018-04-16T21:14:36.585Z,100716.22
2018-04-16T21:17:04.267Z,100723.89
2018-04-16T21:19:31.890Z,100728.81
2018-04-16T21:21:59.591Z,100738.27
2018-04-16T21:24:27.249Z,100745.09
2018-04-16T21:26:54.942Z,100744.83
2018-04-16T21:29:22.549Z,100749.28
2018-04-16T21:31:50.218Z,100752.80
2018-04-16T21:34:17.831Z,100745.37
2018-04-16T21:36:45.537Z,100756.22
2018-04-16T21:39:13.159Z,100752.55
2018-04-16T21:41:40.819Z,100757.91
2018-04-16T21:44:08.447Z,100750.67
2018-04-16T21:46:36.136Z,100750.73
2018-04-16T21:49:03.767Z,100749.74
2018-04-16T21:51:31.430Z,100755.08
2018-04-16T21:53:59.034Z,100762.55
2018-04-16T21:56:26.684Z,100763.85
2018-04-16T21:58:54.321Z,100763.13
2018-04-16T22:01:22.027Z,100773.64
2018-04-16T22:03:49.631Z,100778.20
2018-04-16T22:06:17.296Z,100781.11
2018-04-16T22:08:44.907Z,100778.23
2018-04-16T22:11:12.568Z,100774.98
2018-04-16T22:13:40.190Z,100783.16
2018-04-16T22:16:07.863Z,100788.51
2018-04-16T22:18:35.478Z,100789.84
2018-04-16T22:21:03.143Z,100794.92
2018-04-16T22:23:30.746Z,100784.50
2018-04-16T22:25:58.398Z,100788.94
2018-04-16T22:28:26.014Z,100793.70
2018-04-16T22:30:53.703Z,100789.39
2018-04-16T22:33:21.327Z,100787.48
2018-04-16T22:35:49.004Z,100788.77
2018-04-16T22:38:16.619Z,100790.95
2018-04-16T22:40:44.276Z,100797.94
2018-04-16T22:43:11.906Z,100795.48
2018-04-16T22:45:39.551Z,100798.36
2018-04-16T22:48:07.207Z,100806.66
2018-04-16T22:50:34.830Z,100804.77
2018-04-16T22:53:02.508Z,100807.59
2018-04-16T22:55:30.145Z,100809.83
2018-04-16T22:57:57.826Z,100818.22
2018-04-16T23:00:25.460Z,100821.03
2018-04-16T23:02:53.118Z,100824.38
2018-04-16T23:05:20.730Z,100821.41
2018-04-16T23:07:48.430Z,100814.05
2018-04-16T23:10:16.036Z,100823.39
2018-04-16T23:12:43.682Z,100821.27
2018-04-16T23:15:11.299Z,100818.52
2018-04-16T23:17:38.947Z,100823.45
2018-04-16T23:20:06.564Z,100825.70
2018-04-16T23:22:34.226Z,100829.98
2018-04-16T23:25:01.835Z,100828.01
2018-04-16T23:27:29.498Z,100828.36
2018-04-16T23:29:57.106Z,100829.63
2018-04-16T23:32:24.783Z,100827.97
2018-04-16T23:34:52.412Z,100840.54
2018-04-16T23:37:20.074Z,100842.64
2018-04-16T23:39:47.676Z,100841.83
2018-04-16T23:42:15.367Z,100844.05
2018-04-16T23:44:42.971Z,100842.17
2018-04-16T23:47:10.639Z,100858.34
2018-04-16T23:49:38.265Z,100861.77
2018-04-16T23:52:05.922Z,100864.76
2018-04-16T23:54:33.527Z,100864.39
2018-04-16T23:57:01.197Z,100872.39
2018-04-16T23:59:28.838Z,100876.25
